Time;durP1;ratioP1;P1;durP2;ratioP2;P2;SDS_P1;SDS_P2;PMS_P1;PMS_P2;Temp;Humidity;BMP_temperature;BMP_pressure;BME280_temperature;BME280_humidity;BME280_pressure;Samples;Min_cycle;Max_cycle;Signal;HPM_P1;HPM_P2
2020/12/27 00:00:12;;;;;;;16.13;12.87;;;5.30;99.90;;;;;;5117972;27;20190;-79
2020/12/27 00:02:38;;;;;;;16.13;13.40;;;5.30;99.90;;;;;;5109089;28;20672;-78
2020/12/27 00:05:06;;;;;;;16.23;13.07;;;5.30;99.90;;;;;;5121092;27;20188;-79
2020/12/27 00:07:31;;;;;;;14.67;13.13;;;5.30;99.90;;;;;;5114151;28;20228;-79
2020/12/27 00:09:59;;;;;;;13.97;12.10;;;5.30;99.90;;;;;;5100728;28;20272;-79
2020/12/27 00:12:25;;;;;;;14.57;13.03;;;5.30;99.90;;;;;;5107681;28;20192;-78
2020/12/27 00:14:51;;;;;;;13.57;12.03;;;5.30;99.90;;;;;;5114760;27;20181;-79
2020/12/27 00:17:16;;;;;;;13.53;12.13;;;5.30;99.90;;;;;;5113156;28;20649;-78
2020/12/27 00:19:42;;;;;;;13.07;11.57;;;5.30;99.90;;;;;;5101974;28;20188;-80
2020/12/27 00:22:09;;;;;;;13.40;12.00;;;5.20;99.90;;;;;;5123747;27;20669;-78
2020/12/27 00:24:35;;;;;;;12.70;11.10;;;5.20;99.90;;;;;;5114229;28;20179;-78
2020/12/27 00:27:01;;;;;;;11.77;10.57;;;5.30;99.90;;;;;;5114213;28;20188;-79
2020/12/27 00:29:27;;;;;;;13.03;11.27;;;5.30;99.90;;;;;;5120677;27;20690;-78
2020/12/27 00:31:53;;;;;;;12.17;10.87;;;5.30;99.90;;;;;;5115284;27;20415;-78
2020/12/27 00:34:20;;;;;;;11.63;10.37;;;5.20;99.90;;;;;;5115648;27;20546;-78
2020/12/27 00:36:46;;;;;;;11.50;10.17;;;5.30;99.90;;;;;;5115247;28;20563;-78
2020/12/27 00:39:12;;;;;;;12.77;10.53;;;5.20;99.90;;;;;;5113441;28;20196;-79
2020/12/27 00:41:37;;;;;;;12.23;10.00;;;5.20;99.90;;;;;;5077748;28;20197;-78
2020/12/27 00:44:03;;;;;;;11.07;9.50;;;5.20;99.90;;;;;;5093551;28;20667;-78
2020/12/27 00:46:29;;;;;;;11.23;8.70;;;5.20;99.90;;;;;;5103720;28;20184;-79
2020/12/27 00:48:55;;;;;;;12.50;8.97;;;5.30;99.90;;;;;;5113413;28;20184;-79
2020/12/27 00:51:22;;;;;;;10.73;9.40;;;5.20;99.90;;;;;;5096699;28;20226;-78
2020/12/27 00:53:47;;;;;;;9.97;8.83;;;5.20;99.90;;;;;;5114550;28;20181;-79
2020/12/27 00:56:13;;;;;;;9.43;8.47;;;5.20;99.90;;;;;;5096553;28;20273;-79
2020/12/27 00:58:40;;;;;;;11.00;8.80;;;5.20;99.90;;;;;;5080526;28;20183;-79
2020/12/27 01:01:06;;;;;;;10.37;8.27;;;5.30;99.90;;;;;;5099167;28;20649;-78
2020/12/27 01:03:33;;;;;;;8.50;7.70;;;5.20;99.90;;;;;;5104659;28;20256;-78
2020/12/27 01:05:58;;;;;;;10.50;8.67;;;5.20;99.90;;;;;;5113036;28;20200;-79
2020/12/27 01:08:24;;;;;;;9.17;8.27;;;5.20;99.90;;;;;;5077620;28;20206;-79
2020/12/27 01:10:50;;;;;;;10.53;8.93;;;5.20;99.90;;;;;;5105005;28;20185;-78
2020/12/27 01:13:15;;;;;;;10.17;8.20;;;5.10;99.90;;;;;;5079786;28;20230;-79
2020/12/27 01:15:41;;;;;;;10.20;8.73;;;5.20;99.90;;;;;;5096294;28;20587;-79
2020/12/27 01:18:07;;;;;;;10.30;7.80;;;5.20;99.90;;;;;;5085123;28;20181;-79
2020/12/27 01:20:33;;;;;;;9.23;8.00;;;5.20;99.90;;;;;;5102586;28;20221;-78
2020/12/27 01:22:59;;;;;;;8.47;7.67;;;5.20;99.90;;;;;;5079154;28;20203;-79
2020/12/27 01:25:25;;;;;;;10.43;8.23;;;5.20;99.90;;;;;;5095410;28;20590;-79
2020/12/27 01:27:51;;;;;;;10.50;7.60;;;5.20;99.90;;;;;;5114161;28;20186;-78
2020/12/27 01:30:17;;;;;;;8.47;7.50;;;5.10;99.90;;;;;;5112901;28;20181;-78
2020/12/27 01:39:26;;;;;;;8.73;7.87;;;5.10;99.90;;;;;;5109874;28;20199;-79
2020/12/27 01:41:52;;;;;;;11.60;7.27;;;5.10;99.90;;;;;;5078988;28;20185;-78
2020/12/27 01:44:17;;;;;;;7.43;6.73;;;5.20;99.90;;;;;;5110807;28;20211;-78
2020/12/27 01:46:45;;;;;;;8.00;7.13;;;5.10;99.90;;;;;;5114252;28;20177;-79
2020/12/27 01:49:13;;;;;;;9.10;6.90;;;5.20;99.90;;;;;;5079059;28;20518;-78
2020/12/27 01:51:39;;;;;;;8.63;6.97;;;5.20;99.90;;;;;;5113075;28;20510;-78
2020/12/27 01:54:05;;;;;;;7.10;6.33;;;5.20;99.90;;;;;;5112787;28;20192;-78
2020/12/27 01:56:42;;;;;;;7.90;6.47;;;5.30;99.90;;;;;;5113880;28;20176;-78
2020/12/27 01:59:21;;;;;;;6.47;5.87;;;5.30;99.90;;;;;;5098771;28;20264;-78
2020/12/27 02:01:47;;;;;;;7.40;6.60;;;5.30;99.90;;;;;;5093186;28;20185;-78
2020/12/27 02:04:12;;;;;;;9.00;6.63;;;5.30;99.90;;;;;;5092377;28;20584;-78
2020/12/27 02:06:41;;;;;;;9.00;6.27;;;5.30;99.90;;;;;;5101756;28;20180;-78
2020/12/27 02:09:08;;;;;;;7.90;5.80;;;5.40;99.90;;;;;;5082515;28;20656;-78
2020/12/27 02:11:34;;;;;;;7.23;5.90;;;5.40;99.90;;;;;;5092071;28;20170;-78
2020/12/27 02:13:59;;;;;;;6.70;6.00;;;5.30;99.90;;;;;;5082415;28;20280;-78
2020/12/27 02:16:29;;;;;;;6.73;5.80;;;5.30;99.90;;;;;;5092088;28;20186;-78
2020/12/27 02:18:56;;;;;;;6.73;5.80;;;5.40;99.90;;;;;;5098657;28;20231;-78
2020/12/27 02:21:23;;;;;;;6.47;5.80;;;5.40;99.90;;;;;;5103991;28;20522;-78
2020/12/27 02:23:49;;;;;;;6.27;5.60;;;5.40;99.90;;;;;;5116436;28;20200;-78
2020/12/27 02:26:15;;;;;;;6.13;5.40;;;5.40;99.90;;;;;;5116183;28;20180;-78
2020/12/27 02:28:41;;;;;;;5.90;5.40;;;5.40;99.90;;;;;;5118158;28;20176;-78
2020/12/27 02:31:06;;;;;;;6.00;5.40;;;5.40;99.90;;;;;;5099278;28;20177;-78
2020/12/27 02:33:32;;;;;;;5.73;4.77;;;5.40;99.90;;;;;;5091378;28;20185;-78
2020/12/27 02:35:58;;;;;;;6.20;5.60;;;5.40;99.90;;;;;;5078763;28;20725;-78
2020/12/27 02:38:24;;;;;;;5.53;4.90;;;5.40;99.90;;;;;;5078829;28;20284;-77
2020/12/27 02:40:49;;;;;;;4.83;4.43;;;5.50;99.90;;;;;;5095787;28;20245;-78
2020/12/27 02:43:17;;;;;;;5.43;4.87;;;5.60;99.90;;;;;;5083856;28;20203;-78
2020/12/27 02:45:43;;;;;;;4.90;4.50;;;5.60;99.90;;;;;;5099112;28;20192;-78
2020/12/27 02:48:09;;;;;;;5.17;4.67;;;5.50;99.90;;;;;;5117113;28;20179;-78
2020/12/27 02:50:34;;;;;;;5.83;4.33;;;5.50;99.90;;;;;;5116434;28;20579;-79
2020/12/27 02:53:01;;;;;;;5.60;5.10;;;5.50;99.90;;;;;;5097305;28;20239;-77
2020/12/27 02:55:27;;;;;;;6.00;4.43;;;5.50;99.90;;;;;;5098815;28;20259;-78
2020/12/27 02:57:52;;;;;;;5.73;5.00;;;5.40;99.90;;;;;;5116378;28;20215;-78
2020/12/27 03:00:18;;;;;;;4.73;4.33;;;5.50;99.90;;;;;;5115768;28;20183;-78
2020/12/27 03:02:44;;;;;;;5.50;4.67;;;5.50;99.90;;;;;;5116932;28;20201;-78
2020/12/27 03:05:09;;;;;;;4.90;4.37;;;5.50;99.90;;;;;;5093066;28;20174;-78
2020/12/27 03:07:35;;;;;;;4.50;4.10;;;5.60;99.90;;;;;;5097531;28;20177;-78
2020/12/27 03:10:01;;;;;;;5.00;4.50;;;5.50;99.90;;;;;;5116904;28;20514;-78
2020/12/27 03:12:26;;;;;;;4.87;4.23;;;5.60;99.90;;;;;;5081865;28;20180;-78
2020/12/27 03:14:52;;;;;;;5.60;4.10;;;5.60;99.90;;;;;;5098413;28;20179;-78
2020/12/27 03:17:17;;;;;;;4.60;4.13;;;5.70;99.90;;;;;;5096690;28;20630;-78
2020/12/27 03:19:43;;;;;;;4.43;4.03;;;5.70;99.90;;;;;;5086027;28;20201;-78
2020/12/27 03:22:09;;;;;;;5.60;4.10;;;5.70;99.90;;;;;;5094998;28;20579;-78
2020/12/27 03:24:34;;;;;;;4.23;3.80;;;5.70;99.90;;;;;;5109513;28;20181;-78
2020/12/27 03:27:00;;;;;;;3.80;3.33;;;5.80;99.90;;;;;;5116547;28;20185;-78
2020/12/27 03:29:26;;;;;;;3.47;3.17;;;5.80;99.90;;;;;;5087788;28;20264;-78
2020/12/27 03:31:52;;;;;;;3.40;3.10;;;5.80;99.90;;;;;;5094806;28;20184;-78
2020/12/27 03:34:19;;;;;;;3.37;2.80;;;5.80;99.90;;;;;;5104641;28;20253;-78
2020/12/27 03:36:46;;;;;;;4.67;3.30;;;5.80;99.90;;;;;;5115052;28;20189;-78
2020/12/27 03:39:11;;;;;;;3.27;2.87;;;5.80;99.90;;;;;;5095844;28;20192;-78
2020/12/27 03:41:38;;;;;;;2.90;2.50;;;5.80;99.90;;;;;;5095895;28;20703;-79
2020/12/27 03:44:03;;;;;;;2.70;2.37;;;5.90;99.90;;;;;;5102417;28;20213;-79
2020/12/27 03:46:29;;;;;;;2.97;2.30;;;5.90;99.90;;;;;;5095811;28;20176;-78
2020/12/27 03:48:55;;;;;;;2.33;2.20;;;5.80;99.90;;;;;;5110591;28;20185;-78
2020/12/27 03:51:21;;;;;;;3.30;2.50;;;5.80;99.90;;;;;;5094514;28;20191;-78
2020/12/27 03:53:47;;;;;;;2.67;2.47;;;5.90;99.90;;;;;;5096354;28;20180;-78
2020/12/27 03:56:13;;;;;;;2.50;2.30;;;5.90;99.90;;;;;;5097676;28;20208;-79
2020/12/27 03:58:38;;;;;;;3.73;2.50;;;5.90;99.90;;;;;;5112799;28;20197;-80
2020/12/27 04:01:04;;;;;;;2.43;2.20;;;5.90;99.90;;;;;;5095281;28;20541;-78
2020/12/27 04:03:30;;;;;;;2.50;2.30;;;6.00;99.90;;;;;;5093944;28;20281;-78
2020/12/27 04:05:55;;;;;;;2.53;2.30;;;5.90;99.90;;;;;;5094469;28;20252;-79
2020/12/27 04:08:21;;;;;;;2.53;2.30;;;5.90;99.90;;;;;;5107086;28;20183;-78
2020/12/27 04:10:47;;;;;;;2.50;2.30;;;5.90;99.90;;;;;;5080765;28;20184;-77
2020/12/27 04:13:12;;;;;;;4.80;2.43;;;5.80;99.90;;;;;;5097438;28;20195;-78
2020/12/27 04:15:38;;;;;;;2.50;2.30;;;5.90;99.90;;;;;;5112890;28;20645;-78
2020/12/27 04:18:04;;;;;;;3.47;1.90;;;5.90;99.90;;;;;;5093914;28;20524;-78
2020/12/27 04:20:29;;;;;;;2.50;2.30;;;5.80;99.90;;;;;;5095197;28;20268;-77
2020/12/27 04:22:55;;;;;;;2.77;2.57;;;5.90;99.90;;;;;;5103454;28;20207;-78
2020/12/27 04:25:21;;;;;;;2.27;2.10;;;5.80;99.90;;;;;;5097251;28;20186;-77
2020/12/27 04:27:46;;;;;;;2.10;1.90;;;5.80;99.90;;;;;;5079381;28;20177;-78
2020/12/27 04:30:12;;;;;;;5.03;2.30;;;5.80;99.90;;;;;;5096993;28;20184;-78
2020/12/27 04:32:38;;;;;;;3.00;2.10;;;5.90;99.90;;;;;;5113212;28;20172;-78
2020/12/27 04:35:04;;;;;;;2.00;1.90;;;5.80;99.90;;;;;;5113980;28;20188;-78
2020/12/27 04:37:30;;;;;;;1.97;1.87;;;5.80;99.90;;;;;;5113650;28;20327;-78
2020/12/27 04:39:56;;;;;;;2.10;2.00;;;5.80;99.90;;;;;;5113347;28;20641;-78
2020/12/27 04:42:24;;;;;;;2.10;1.80;;;5.80;99.90;;;;;;5113449;28;20222;-78
2020/12/27 04:44:50;;;;;;;1.97;1.73;;;5.80;99.90;;;;;;5093265;28;20544;-78
2020/12/27 04:47:16;;;;;;;1.93;1.83;;;5.80;99.90;;;;;;5084469;28;20265;-78
2020/12/27 04:49:43;;;;;;;2.07;1.70;;;5.80;99.90;;;;;;5113571;28;20583;-78
2020/12/27 04:52:11;;;;;;;2.07;1.57;;;5.80;99.90;;;;;;5089231;28;20557;-78
2020/12/27 04:54:38;;;;;;;1.73;1.63;;;5.80;99.90;;;;;;5093199;28;20238;-78
2020/12/27 04:57:03;;;;;;;1.57;1.43;;;5.80;99.90;;;;;;5113535;28;20237;-78
2020/12/27 04:59:29;;;;;;;2.00;1.90;;;5.80;99.90;;;;;;5113512;28;20179;-78
2020/12/27 05:01:55;;;;;;;3.00;2.00;;;5.80;99.90;;;;;;5113248;28;20208;-78
2020/12/27 05:04:26;;;;;;;1.93;1.50;;;5.80;99.90;;;;;;5114409;28;20211;-78
2020/12/27 05:06:55;;;;;;;1.80;1.70;;;5.70;99.90;;;;;;5097094;28;20182;-78
2020/12/27 05:09:26;;;;;;;4.30;2.00;;;5.70;99.90;;;;;;5101523;28;20185;-78
2020/12/27 05:11:52;;;;;;;1.83;1.73;;;5.70;99.90;;;;;;5106612;28;20528;-78
2020/12/27 05:14:27;;;;;;;1.83;1.63;;;5.70;99.90;;;;;;5113208;28;20223;-79
2020/12/27 05:16:55;;;;;;;1.70;1.60;;;5.60;99.90;;;;;;5098375;28;20200;-79
2020/12/27 05:19:21;;;;;;;2.30;2.00;;;5.60;99.90;;;;;;5109531;28;20176;-78
2020/12/27 05:21:47;;;;;;;1.90;1.80;;;5.60;99.90;;;;;;5098127;28;20190;-78
2020/12/27 05:24:13;;;;;;;1.90;1.80;;;5.60;99.90;;;;;;5093847;28;20201;-78
2020/12/27 05:26:41;;;;;;;1.63;1.53;;;5.60;99.90;;;;;;5092695;28;20176;-79
2020/12/27 05:29:11;;;;;;;1.87;1.67;;;5.60;99.90;;;;;;5076335;28;20179;-79
2020/12/27 05:31:38;;;;;;;1.90;1.80;;;5.60;99.90;;;;;;5106381;28;20206;-77
2020/12/27 05:34:05;;;;;;;2.03;1.87;;;5.60;99.90;;;;;;5097203;28;20528;-77
2020/12/27 05:36:32;;;;;;;2.00;1.80;;;5.60;99.90;;;;;;5095625;28;20185;-77
2020/12/27 05:38:58;;;;;;;1.90;1.80;;;5.60;99.90;;;;;;5112653;28;20246;-77
2020/12/27 05:41:28;;;;;;;2.90;1.80;;;5.70;99.90;;;;;;5113271;28;20191;-78
2020/12/27 05:44:04;;;;;;;2.30;2.10;;;5.70;99.90;;;;;;5112789;28;20684;-78
2020/12/27 05:46:31;;;;;;;1.83;1.73;;;5.70;99.90;;;;;;5096259;28;20184;-78
2020/12/27 05:48:58;;;;;;;1.83;1.73;;;5.70;99.90;;;;;;5107640;28;20695;-77
2020/12/27 05:51:24;;;;;;;1.90;1.80;;;5.70;99.90;;;;;;5104420;28;20649;-78
2020/12/27 05:53:54;;;;;;;1.73;1.63;;;5.80;99.90;;;;;;5096411;28;20271;-77
2020/12/27 05:56:28;;;;;;;1.80;1.70;;;5.70;99.90;;;;;;5113909;28;20545;-78
2020/12/27 05:58:57;;;;;;;1.80;1.70;;;5.70;99.90;;;;;;5114601;28;20217;-78
2020/12/27 06:01:24;;;;;;;3.47;1.97;;;5.70;99.90;;;;;;5113591;28;20186;-77
2020/12/27 06:03:57;;;;;;;1.73;1.63;;;5.70;99.90;;;;;;5112228;28;20287;-77
2020/12/27 06:07:01;;;;;;;2.37;1.70;;;5.70;99.90;;;;;;5102634;28;20235;-78
2020/12/27 06:09:38;;;;;;;1.60;1.50;;;5.70;99.90;;;;;;5113502;27;20191;-78
2020/12/27 06:12:06;;;;;;;1.67;1.57;;;5.70;99.90;;;;;;5105505;28;20206;-78
2020/12/27 06:14:36;;;;;;;1.63;1.40;;;5.70;99.90;;;;;;5112582;28;20184;-78
2020/12/27 06:17:11;;;;;;;1.97;1.77;;;5.70;99.90;;;;;;5114399;28;20191;-77
2020/12/27 06:19:57;;;;;;;1.93;1.47;;;5.70;99.90;;;;;;5098811;28;20183;-78
2020/12/27 06:22:31;;;;;;;1.40;1.30;;;5.80;99.90;;;;;;5092446;28;20185;-78
2020/12/27 06:24:59;;;;;;;1.53;1.43;;;5.80;99.90;;;;;;5075997;28;20174;-78
2020/12/27 06:27:27;;;;;;;3.47;1.60;;;5.80;99.90;;;;;;5094357;28;20223;-77
2020/12/27 06:30:00;;;;;;;1.63;1.53;;;5.80;99.90;;;;;;5108545;28;20652;-77
2020/12/27 06:32:30;;;;;;;1.60;1.50;;;5.80;99.90;;;;;;5112011;28;20185;-78
2020/12/27 06:34:56;;;;;;;1.60;1.50;;;5.80;99.90;;;;;;5112995;28;20175;-78
2020/12/27 06:37:22;;;;;;;2.20;1.90;;;5.80;99.90;;;;;;5095271;28;20180;-78
2020/12/27 06:39:47;;;;;;;2.50;1.63;;;5.80;99.90;;;;;;5113739;28;20185;-78
2020/12/27 06:42:18;;;;;;;2.10;1.77;;;5.90;99.90;;;;;;5113145;28;20189;-78
2020/12/27 06:44:50;;;;;;;3.33;1.60;;;5.80;99.90;;;;;;5114205;28;20162;-78
2020/12/27 06:47:17;;;;;;;1.60;1.50;;;5.90;99.90;;;;;;5112919;28;20181;-78
2020/12/27 06:50:06;;;;;;;1.57;1.47;;;5.90;99.90;;;;;;5113181;28;20177;-78
2020/12/27 06:52:32;;;;;;;1.83;1.67;;;5.90;99.90;;;;;;5092179;28;20654;-78
2020/12/27 06:54:58;;;;;;;1.93;1.50;;;5.90;99.90;;;;;;5092342;28;20262;-78
2020/12/27 06:57:45;;;;;;;1.57;1.47;;;5.90;99.90;;;;;;5094490;28;20190;-78
2020/12/27 07:00:40;;;;;;;1.80;1.50;;;5.90;99.90;;;;;;5113861;28;20159;-78
2020/12/27 07:03:22;;;;;;;1.67;1.57;;;5.90;99.90;;;;;;5097024;28;20210;-78
2020/12/27 07:05:49;;;;;;;2.03;1.50;;;6.00;99.90;;;;;;5081856;28;20276;-78
2020/12/27 07:08:17;;;;;;;2.63;1.70;;;6.00;99.90;;;;;;5112393;28;20586;-78
2020/12/27 07:10:45;;;;;;;1.57;1.47;;;5.90;99.90;;;;;;5095422;28;20631;-78
2020/12/27 07:13:17;;;;;;;2.70;1.47;;;6.00;99.90;;;;;;5108231;28;20184;-78
2020/12/27 07:15:50;;;;;;;1.53;1.43;;;6.00;99.90;;;;;;5115482;28;20714;-78
2020/12/27 07:18:28;;;;;;;1.70;1.60;;;6.00;99.90;;;;;;5111959;28;20248;-78
2020/12/27 07:20:59;;;;;;;1.77;1.67;;;6.10;99.90;;;;;;5095475;28;20634;-79
2020/12/27 07:23:32;;;;;;;2.23;1.80;;;6.10;99.90;;;;;;5095306;28;20539;-79
2020/12/27 07:26:00;;;;;;;2.53;1.50;;;6.10;99.90;;;;;;5095102;28;20208;-78
2020/12/27 07:28:26;;;;;;;1.70;1.60;;;6.00;99.90;;;;;;5105678;28;20178;-79
2020/12/27 07:31:00;;;;;;;1.57;1.47;;;6.10;99.90;;;;;;5117311;28;20200;-79
2020/12/27 07:33:31;;;;;;;1.77;1.30;;;6.10;99.90;;;;;;5115141;28;20187;-79
2020/12/27 07:36:02;;;;;;;1.50;1.40;;;6.20;99.90;;;;;;5095606;28;20178;-78
2020/12/27 07:38:49;;;;;;;1.53;1.43;;;6.20;99.90;;;;;;5113256;28;20195;-78
2020/12/27 07:41:27;;;;;;;1.70;1.60;;;6.20;99.90;;;;;;5116033;28;20268;-78
2020/12/27 07:43:53;;;;;;;1.60;1.50;;;6.20;99.90;;;;;;5115064;28;20202;-78
2020/12/27 07:46:20;;;;;;;1.60;1.50;;;6.20;99.90;;;;;;5116122;28;20234;-78
2020/12/27 07:48:48;;;;;;;1.50;1.40;;;6.30;99.90;;;;;;5115511;28;20172;-79
2020/12/27 07:51:18;;;;;;;1.50;1.40;;;6.30;99.90;;;;;;5098342;28;20180;-78
2020/12/27 07:53:52;;;;;;;2.60;1.53;;;6.30;99.90;;;;;;5113773;28;20197;-77
2020/12/27 07:56:27;;;;;;;3.87;1.40;;;6.30;99.90;;;;;;5116041;28;20177;-78
2020/12/27 07:59:00;;;;;;;4.00;1.53;;;6.40;99.90;;;;;;5111010;28;20580;-78
2020/12/27 08:01:34;;;;;;;1.63;1.53;;;6.30;99.90;;;;;;5112481;28;20252;-77
2020/12/27 08:04:00;;;;;;;1.67;1.57;;;6.30;99.90;;;;;;5115399;28;20205;-78
2020/12/27 08:06:28;;;;;;;1.73;1.63;;;6.30;99.90;;;;;;5116282;28;20173;-78
2020/12/27 08:09:00;;;;;;;3.80;1.43;;;6.30;99.90;;;;;;5117016;28;20549;-78
2020/12/27 08:11:27;;;;;;;1.50;1.30;;;6.40;99.90;;;;;;5112692;28;20548;-78
2020/12/27 08:14:02;;;;;;;1.60;1.50;;;6.40;99.90;;;;;;5114517;28;20176;-77
2020/12/27 08:16:28;;;;;;;1.53;1.43;;;6.30;99.90;;;;;;5113915;28;20632;-78
2020/12/27 08:19:06;;;;;;;1.87;1.30;;;6.30;99.90;;;;;;5101592;28;20205;-77
2020/12/27 08:21:32;;;;;;;1.50;1.40;;;6.30;99.90;;;;;;5111808;28;20174;-78
2020/12/27 08:24:12;;;;;;;1.87;1.27;;;6.40;99.90;;;;;;5110733;28;20215;-77
2020/12/27 08:26:40;;;;;;;1.73;1.30;;;6.40;99.90;;;;;;5109385;28;20176;-77
2020/12/27 08:29:25;;;;;;;3.27;1.47;;;6.40;99.90;;;;;;5110800;28;20249;-78
2020/12/27 08:31:53;;;;;;;1.40;1.30;;;6.40;99.90;;;;;;5111055;28;20173;-78
2020/12/27 08:34:24;;;;;;;1.60;1.50;;;6.40;99.90;;;;;;5108838;28;20695;-77
2020/12/27 08:36:55;;;;;;;2.87;2.27;;;6.40;99.90;;;;;;5106413;28;20173;-77
2020/12/27 08:39:32;;;;;;;1.40;1.30;;;6.30;99.90;;;;;;5112047;28;20607;-78
2020/12/27 08:42:08;;;;;;;1.60;1.50;;;6.30;99.90;;;;;;5109860;28;20177;-78
2020/12/27 08:44:44;;;;;;;2.60;1.40;;;6.30;99.90;;;;;;5099686;28;20215;-77
2020/12/27 08:47:46;;;;;;;2.53;1.50;;;6.40;99.90;;;;;;5112891;28;20180;-78
2020/12/27 08:50:17;;;;;;;2.10;1.33;;;6.30;99.90;;;;;;5109431;28;20181;-78
2020/12/27 08:52:48;;;;;;;1.33;1.23;;;6.30;99.90;;;;;;5112151;28;20180;-78
2020/12/27 08:55:15;;;;;;;2.20;1.53;;;6.30;99.90;;;;;;5111024;28;20290;-78
2020/12/27 08:57:44;;;;;;;2.10;1.10;;;6.40;99.90;;;;;;5092382;28;20258;-77
2020/12/27 09:00:11;;;;;;;1.50;1.40;;;6.30;99.90;;;;;;5108965;28;20266;-78
2020/12/27 09:02:38;;;;;;;3.00;1.43;;;6.30;99.90;;;;;;5103148;28;20198;-77
2020/12/27 09:05:14;;;;;;;1.70;1.40;;;6.30;99.90;;;;;;5109741;28;20189;-78
2020/12/27 09:07:46;;;;;;;1.70;1.30;;;6.40;99.90;;;;;;5118864;27;20574;-78
2020/12/27 09:10:17;;;;;;;1.47;1.20;;;6.40;99.90;;;;;;5103615;28;20185;-78
2020/12/27 09:13:09;;;;;;;1.90;1.30;;;6.40;99.90;;;;;;5108981;28;20202;-78
2020/12/27 09:15:49;;;;;;;1.20;1.10;;;6.50;99.90;;;;;;5093253;28;20198;-78
2020/12/27 09:18:16;;;;;;;1.50;1.40;;;6.50;99.90;;;;;;5106868;28;20730;-78
2020/12/27 09:20:44;;;;;;;1.30;1.20;;;6.50;99.90;;;;;;5105281;28;20220;-78
2020/12/27 09:23:17;;;;;;;1.10;1.10;;;6.50;99.90;;;;;;5109721;28;20282;-78
2020/12/27 09:25:44;;;;;;;2.10;1.47;;;6.50;99.90;;;;;;5109335;28;20525;-77
2020/12/27 09:28:14;;;;;;;2.17;1.40;;;6.50;99.90;;;;;;5114646;27;20222;-78
2020/12/27 09:30:40;;;;;;;1.50;1.40;;;6.50;99.90;;;;;;5107232;28;20226;-78
2020/12/27 09:33:06;;;;;;;1.37;1.27;;;6.50;99.90;;;;;;5108348;28;20541;-78
2020/12/27 09:35:32;;;;;;;1.47;1.37;;;6.50;99.90;;;;;;5105133;28;20185;-78
2020/12/27 09:37:58;;;;;;;2.57;1.40;;;6.50;99.90;;;;;;5102566;28;20200;-78
2020/12/27 09:40:23;;;;;;;1.50;1.40;;;6.50;99.90;;;;;;5106565;28;20200;-78
2020/12/27 09:43:04;;;;;;;2.87;1.40;;;6.50;99.90;;;;;;5093267;28;20301;-77
2020/12/27 09:45:48;;;;;;;1.83;1.50;;;6.50;99.90;;;;;;5105693;28;20267;-78
2020/12/27 09:48:14;;;;;;;1.60;1.50;;;6.50;99.90;;;;;;5099057;28;20691;-78
2020/12/27 09:50:39;;;;;;;1.70;1.30;;;6.50;99.90;;;;;;5103700;28;20283;-78
2020/12/27 09:53:05;;;;;;;1.80;1.50;;;6.60;99.90;;;;;;5076498;28;20201;-78
2020/12/27 09:55:33;;;;;;;1.30;1.20;;;6.60;99.90;;;;;;5099431;28;20726;-77
2020/12/27 09:57:59;;;;;;;1.57;1.40;;;6.60;99.90;;;;;;5107988;28;20186;-77
2020/12/27 10:00:25;;;;;;;1.43;1.33;;;6.60;99.90;;;;;;5084953;28;20181;-78
2020/12/27 10:02:51;;;;;;;1.40;1.20;;;6.50;99.90;;;;;;5107655;28;20686;-77
2020/12/27 10:05:16;;;;;;;1.70;1.33;;;6.50;99.90;;;;;;5086266;28;20194;-78
2020/12/27 10:07:43;;;;;;;1.37;1.27;;;6.50;99.90;;;;;;5106902;28;20227;-78
2020/12/27 10:10:11;;;;;;;1.20;1.10;;;6.50;99.90;;;;;;5108341;28;20239;-78
2020/12/27 10:12:37;;;;;;;1.20;1.10;;;6.40;99.90;;;;;;5112982;28;20191;-78
2020/12/27 10:15:04;;;;;;;4.33;1.47;;;6.40;99.90;;;;;;5110129;28;20267;-78
2020/12/27 10:17:30;;;;;;;2.97;1.50;;;6.40;99.90;;;;;;5111817;28;20195;-78
2020/12/27 10:19:58;;;;;;;3.47;1.37;;;6.50;99.90;;;;;;5118277;28;20188;-77
2020/12/27 10:22:24;;;;;;;1.30;1.30;;;6.50;99.90;;;;;;5073277;28;20190;-78
2020/12/27 10:24:50;;;;;;;1.60;1.47;;;6.40;99.90;;;;;;5113690;28;20637;-78
2020/12/27 10:27:15;;;;;;;2.03;1.60;;;6.50;99.90;;;;;;5113435;28;20193;-78
2020/12/27 10:29:41;;;;;;;1.37;1.23;;;6.50;99.90;;;;;;5117103;28;20189;-78
2020/12/27 10:32:07;;;;;;;2.07;1.50;;;6.50;99.90;;;;;;5090199;28;20635;-79
2020/12/27 10:34:34;;;;;;;1.53;1.40;;;6.50;99.90;;;;;;5110838;28;20264;-79
2020/12/27 10:37:01;;;;;;;1.43;1.30;;;6.50;99.90;;;;;;5107099;28;20758;-79
2020/12/27 10:39:27;;;;;;;1.90;1.20;;;6.50;99.90;;;;;;5110079;27;20206;-78
2020/12/27 10:41:54;;;;;;;1.20;1.10;;;6.50;99.90;;;;;;5115405;27;20645;-78
2020/12/27 10:44:21;;;;;;;1.20;1.10;;;6.50;99.90;;;;;;5096165;27;20581;-78
2020/12/27 10:46:50;;;;;;;1.20;1.10;;;6.50;99.90;;;;;;5103007;28;20196;-78
2020/12/27 10:49:17;;;;;;;1.27;1.17;;;6.50;99.90;;;;;;5114780;28;20204;-78
2020/12/27 10:51:42;;;;;;;1.00;1.00;;;6.50;99.90;;;;;;5115952;28;20174;-78
2020/12/27 10:54:10;;;;;;;1.17;1.10;;;6.50;99.90;;;;;;5096282;28;20220;-79
2020/12/27 10:56:35;;;;;;;1.57;1.10;;;6.50;99.90;;;;;;5121243;27;20177;-78
2020/12/27 10:59:01;;;;;;;1.40;1.30;;;6.50;99.90;;;;;;5097125;28;20192;-78
2020/12/27 11:01:27;;;;;;;1.10;1.10;;;6.50;99.90;;;;;;5110505;28;20198;-78
2020/12/27 11:03:53;;;;;;;1.40;1.20;;;6.50;99.90;;;;;;5107477;28;20205;-78
2020/12/27 11:06:19;;;;;;;1.40;1.30;;;6.40;99.90;;;;;;5094880;28;20273;-78
2020/12/27 11:08:45;;;;;;;2.13;1.30;;;6.50;99.90;;;;;;5112175;28;20274;-78
2020/12/27 11:11:10;;;;;;;1.17;1.17;;;6.50;99.90;;;;;;5082031;28;20580;-79
2020/12/27 11:13:36;;;;;;;1.20;1.10;;;6.50;99.90;;;;;;5107943;28;20189;-78
2020/12/27 11:16:02;;;;;;;2.40;1.03;;;6.50;99.90;;;;;;5114087;28;20185;-79
2020/12/27 11:18:28;;;;;;;1.37;1.27;;;6.50;99.90;;;;;;5112378;28;20272;-79
2020/12/27 11:20:54;;;;;;;1.37;1.20;;;6.50;99.90;;;;;;5114805;28;20243;-78
2020/12/27 11:23:20;;;;;;;1.13;1.03;;;6.60;99.90;;;;;;5112070;28;20202;-78
2020/12/27 11:25:46;;;;;;;3.60;1.53;;;6.50;99.90;;;;;;5110827;28;20189;-79
2020/12/27 11:28:11;;;;;;;2.83;1.30;;;6.50;99.90;;;;;;5111723;28;20185;-78
2020/12/27 11:30:37;;;;;;;1.53;1.10;;;6.50;99.90;;;;;;5073941;28;20181;-78
2020/12/27 11:33:03;;;;;;;4.17;1.23;;;6.50;99.90;;;;;;5104838;28;20237;-78
2020/12/27 11:35:28;;;;;;;1.30;1.23;;;6.50;99.90;;;;;;5113690;28;20200;-79
2020/12/27 11:37:54;;;;;;;4.40;1.40;;;6.50;99.90;;;;;;5115398;28;20283;-78
2020/12/27 11:40:20;;;;;;;1.80;1.23;;;6.60;99.90;;;;;;5114588;28;20647;-79
2020/12/27 11:42:46;;;;;;;1.33;1.23;;;6.60;99.90;;;;;;5114275;28;20208;-79
2020/12/27 11:45:12;;;;;;;1.30;1.27;;;6.60;99.90;;;;;;5115803;28;20176;-79
2020/12/27 11:47:38;;;;;;;1.63;1.30;;;6.60;99.90;;;;;;5114564;28;20214;-79
2020/12/27 11:50:04;;;;;;;1.40;1.23;;;6.60;99.90;;;;;;5073906;28;20186;-79
2020/12/27 11:52:30;;;;;;;3.90;1.40;;;6.60;99.90;;;;;;5077649;28;20189;-79
2020/12/27 11:54:56;;;;;;;1.20;1.10;;;6.60;99.90;;;;;;5096708;27;20197;-79
2020/12/27 11:57:22;;;;;;;1.53;1.17;;;6.60;99.90;;;;;;5108294;28;20251;-79
2020/12/27 11:59:47;;;;;;;1.40;1.30;;;6.60;99.90;;;;;;5089207;28;20293;-79
2020/12/27 12:02:13;;;;;;;1.17;1.10;;;6.60;99.90;;;;;;5109476;28;20194;-79
2020/12/27 12:04:38;;;;;;;1.00;1.00;;;6.60;99.90;;;;;;5096576;28;20217;-79
2020/12/27 12:07:04;;;;;;;1.40;1.10;;;6.60;99.90;;;;;;5111747;28;20276;-78
2020/12/27 12:09:31;;;;;;;1.37;1.10;;;6.60;99.90;;;;;;5077083;27;20188;-78
2020/12/27 12:11:56;;;;;;;1.80;1.37;;;6.50;99.90;;;;;;5114992;27;20224;-78
2020/12/27 12:14:22;;;;;;;1.23;1.13;;;6.50;99.90;;;;;;5119095;27;20209;-78
2020/12/27 12:16:47;;;;;;;1.07;1.07;;;6.50;99.90;;;;;;5114573;28;20540;-78
2020/12/27 12:19:13;;;;;;;2.27;1.40;;;6.60;99.90;;;;;;5114759;28;20625;-78
2020/12/27 12:21:39;;;;;;;1.83;1.50;;;6.60;99.90;;;;;;5119483;27;20542;-78
2020/12/27 12:24:05;;;;;;;3.27;1.40;;;6.50;99.90;;;;;;5113271;28;20277;-78
2020/12/27 12:26:32;;;;;;;1.83;1.27;;;6.60;99.90;;;;;;5109868;28;20281;-78
2020/12/27 12:29:00;;;;;;;1.57;1.47;;;6.60;99.90;;;;;;5114674;28;20205;-78
2020/12/27 12:31:27;;;;;;;1.33;1.27;;;6.50;99.90;;;;;;5111356;27;20184;-78
2020/12/27 12:33:53;;;;;;;1.30;1.20;;;6.50;99.90;;;;;;5103865;27;20683;-78
2020/12/27 12:36:22;;;;;;;1.37;1.27;;;6.50;99.90;;;;;;5112989;28;20193;-78
2020/12/27 12:38:48;;;;;;;1.40;1.30;;;6.50;99.90;;;;;;5109887;28;20653;-78
2020/12/27 12:41:15;;;;;;;1.47;1.37;;;6.50;99.90;;;;;;5105061;28;20226;-78
2020/12/27 12:43:43;;;;;;;2.03;1.40;;;6.50;99.90;;;;;;5109941;28;20261;-78
2020/12/27 12:46:09;;;;;;;2.33;1.30;;;6.50;99.90;;;;;;5100367;28;20176;-78
2020/12/27 12:48:35;;;;;;;1.40;1.30;;;6.50;99.90;;;;;;5112658;28;20188;-78
2020/12/27 12:51:01;;;;;;;1.17;1.17;;;6.50;99.90;;;;;;5111212;28;20186;-77
2020/12/27 12:53:27;;;;;;;1.27;1.20;;;6.50;99.90;;;;;;5114246;28;20188;-77
2020/12/27 12:55:53;;;;;;;1.73;1.37;;;6.50;99.90;;;;;;5115188;27;20592;-78
2020/12/27 12:58:19;;;;;;;2.83;1.50;;;6.50;99.90;;;;;;5112627;28;20185;-78
2020/12/27 13:00:45;;;;;;;1.80;1.40;;;6.50;99.90;;;;;;5095755;28;20241;-78
2020/12/27 13:03:10;;;;;;;1.37;1.27;;;6.50;99.90;;;;;;5108677;27;20303;-78
2020/12/27 13:05:36;;;;;;;1.50;1.40;;;6.50;99.90;;;;;;5106401;28;20221;-78